createdAt,value
2023-05-19T00:00:28.599Z,7.29
2023-05-19T00:02:56.202Z,7.21
2023-05-19T00:05:23.123Z,7.20
2023-05-19T00:07:49.818Z,7.14
2023-05-19T00:10:16.673Z,7.12
2023-05-19T00:12:43.717Z,7.08
2023-05-19T00:15:10.600Z,7.08
2023-05-19T00:17:38.325Z,7.08
2023-05-19T00:20:07.392Z,7.05
2023-05-19T00:22:34.253Z,6.97
2023-05-19T00:25:00.796Z,6.95
2023-05-19T00:27:27.219Z,6.97
2023-05-19T00:29:53.569Z,6.85
2023-05-19T00:32:19.991Z,6.77
2023-05-19T00:34:48.415Z,6.72
2023-05-19T00:37:14.769Z,6.73
2023-05-19T00:39:41.155Z,6.71
2023-05-19T00:42:07.576Z,6.71
2023-05-19T00:44:33.922Z,6.67
2023-05-19T00:47:00.438Z,6.71
2023-05-19T00:49:26.916Z,6.73
2023-05-19T00:51:53.262Z,6.74
2023-05-19T00:54:19.619Z,6.77
2023-05-19T00:56:46.031Z,6.79
2023-05-19T00:59:12.447Z,6.81
2023-05-19T01:01:38.998Z,6.82
2023-05-19T01:04:05.650Z,6.83
2023-05-19T01:06:32.163Z,6.80
2023-05-19T01:08:58.590Z,6.78
2023-05-19T01:11:25.219Z,6.76
2023-05-19T01:13:51.606Z,6.72
2023-05-19T01:16:23.921Z,6.61
2023-05-19T01:18:50.974Z,6.60
2023-05-19T01:21:17.359Z,6.60
2023-05-19T01:23:49.224Z,6.57
2023-05-19T01:26:25.998Z,6.57
2023-05-19T01:29:09.302Z,6.61
2023-05-19T01:31:37.014Z,6.61
2023-05-19T01:34:04.713Z,6.61
2023-05-19T01:36:31.139Z,6.64
2023-05-19T01:38:58.423Z,6.66
2023-05-19T01:41:24.889Z,6.68
2023-05-19T01:43:51.301Z,6.70
2023-05-19T01:46:17.925Z,6.73
2023-05-19T01:48:44.849Z,6.75
2023-05-19T01:51:11.195Z,6.78
2023-05-19T01:53:37.593Z,6.76
2023-05-19T01:56:04.907Z,6.79
2023-05-19T01:58:31.323Z,6.82
2023-05-19T02:00:57.784Z,6.84
2023-05-19T02:03:27.237Z,6.87
2023-05-19T02:06:12.470Z,6.85
2023-05-19T02:08:38.827Z,6.83
2023-05-19T02:11:09.467Z,6.82
2023-05-19T02:13:36.983Z,6.86
2023-05-19T02:16:04.336Z,6.83
2023-05-19T02:18:31.395Z,6.86
2023-05-19T02:20:57.791Z,6.92
2023-05-19T02:23:24.332Z,6.90
2023-05-19T02:25:50.728Z,6.89
2023-05-19T02:28:17.402Z,6.88
2023-05-19T02:30:43.789Z,6.93
2023-05-19T02:33:11.417Z,6.94
2023-05-19T02:35:37.864Z,6.97
2023-05-19T02:38:04.356Z,6.97
2023-05-19T02:40:30.885Z,7.00
2023-05-19T02:42:57.663Z,7.02
2023-05-19T02:45:24.221Z,7.02
2023-05-19T02:47:50.695Z,7.03
2023-05-19T02:50:17.312Z,7.02
2023-05-19T02:52:43.710Z,7.02
2023-05-19T02:55:10.072Z,7.03
2023-05-19T02:57:36.525Z,7.02
2023-05-19T03:00:03.467Z,7.02
2023-05-19T03:02:30.014Z,7.07
2023-05-19T03:04:56.502Z,7.11
2023-05-19T03:07:25.235Z,7.15
2023-05-19T03:09:52.447Z,7.19
2023-05-19T03:12:18.857Z,7.21
2023-05-19T03:14:45.289Z,7.19
2023-05-19T03:17:12.306Z,7.22
2023-05-19T03:19:38.736Z,7.23
2023-05-19T03:22:05.162Z,7.30
2023-05-19T03:24:31.633Z,7.33
2023-05-19T03:26:58.136Z,7.32
2023-05-19T03:29:24.495Z,7.34
2023-05-19T03:31:52.016Z,7.38
2023-05-19T03:34:18.425Z,7.44
2023-05-19T03:36:45.075Z,7.47
2023-05-19T03:39:11.666Z,7.53
2023-05-19T03:41:38.118Z,7.57
2023-05-19T03:44:04.639Z,7.58
2023-05-19T03:46:31.055Z,7.65
2023-05-19T03:48:57.498Z,7.70
2023-05-19T03:51:23.866Z,7.76
2023-05-19T03:53:50.276Z,7.83
2023-05-19T03:56:18.186Z,7.86
2023-05-19T03:58:45.070Z,7.94
2023-05-19T04:01:11.901Z,8.01
2023-05-19T04:03:38.481Z,8.08
2023-05-19T04:06:04.994Z,8.15
2023-05-19T04:08:38.764Z,8.22
2023-05-19T04:11:07.155Z,8.27
2023-05-19T04:13:34.036Z,8.27
2023-05-19T04:16:00.436Z,8.32
2023-05-19T04:18:28.932Z,8.39
2023-05-19T04:20:55.790Z,8.44
2023-05-19T04:23:22.189Z,8.47
2023-05-19T04:25:48.814Z,8.54
2023-05-19T04:28:15.566Z,8.61
2023-05-19T04:30:42.852Z,8.65
2023-05-19T04:33:09.399Z,8.71
2023-05-19T04:35:38.055Z,8.78
2023-05-19T04:38:04.431Z,8.83
2023-05-19T04:40:31.513Z,8.88
2023-05-19T04:42:59.039Z,8.91
2023-05-19T04:45:26.124Z,9.01
2023-05-19T04:47:52.795Z,9.05
2023-05-19T04:50:19.612Z,9.12
2023-05-19T04:52:45.956Z,9.17
2023-05-19T04:55:13.230Z,9.20
2023-05-19T04:57:40.014Z,9.23
2023-05-19T05:00:08.723Z,9.25
2023-05-19T05:02:35.257Z,9.30
2023-05-19T05:05:01.664Z,9.35
2023-05-19T05:07:29.361Z,9.37
2023-05-19T05:09:56.727Z,9.39
2023-05-19T05:12:23.174Z,9.39
2023-05-19T05:14:51.188Z,9.42
2023-05-19T05:17:17.758Z,9.48
2023-05-19T05:19:44.355Z,9.56
2023-05-19T05:22:10.926Z,9.60
2023-05-19T05:24:37.461Z,9.67
2023-05-19T05:27:04.523Z,9.72
2023-05-19T05:29:30.951Z,9.77
2023-05-19T05:31:57.895Z,9.83
2023-05-19T05:34:24.482Z,9.93
2023-05-19T05:36:51.044Z,9.97
2023-05-19T05:39:17.540Z,9.96
2023-05-19T05:41:43.912Z,10.09
2023-05-19T05:44:10.365Z,10.09
2023-05-19T05:46:36.941Z,10.20
2023-05-19T05:49:03.535Z,10.29
2023-05-19T05:51:30.167Z,10.39
2023-05-19T05:53:56.607Z,10.42
2023-05-19T05:56:23.141Z,10.52
2023-05-19T05:58:50.541Z,10.56
2023-05-19T06:01:18.020Z,10.64
2023-05-19T06:03:44.838Z,10.80
2023-05-19T06:06:11.676Z,10.86
2023-05-19T06:08:38.062Z,10.91
2023-05-19T06:11:09.084Z,10.98
2023-05-19T06:13:38.836Z,11.07
2023-05-19T06:16:05.742Z,11.17
2023-05-19T06:18:32.464Z,11.20
2023-05-19T06:20:58.933Z,11.30
2023-05-19T06:23:26.829Z,11.43
2023-05-19T06:25:53.336Z,11.71
2023-05-19T06:28:19.828Z,11.92
2023-05-19T06:30:46.259Z,11.86
2023-05-19T06:33:12.618Z,12.00
2023-05-19T06:35:39.126Z,12.08
2023-05-19T06:38:05.608Z,12.36
2023-05-19T06:40:32.280Z,12.25
2023-05-19T06:42:58.894Z,12.18
2023-05-19T06:45:25.432Z,12.17
2023-05-19T06:47:51.924Z,12.32
2023-05-19T06:50:18.471Z,12.54
2023-05-19T06:52:46.947Z,12.59
2023-05-19T06:55:13.336Z,12.79
2023-05-19T06:57:39.858Z,12.95
2023-05-19T07:00:09.610Z,12.56
2023-05-19T07:02:36.055Z,12.77
2023-05-19T07:05:03.212Z,12.99
2023-05-19T07:07:29.613Z,12.87
2023-05-19T07:09:56.254Z,12.82
2023-05-19T07:12:22.701Z,12.96
2023-05-19T07:14:49.070Z,12.89
2023-05-19T07:17:15.923Z,12.79
2023-05-19T07:19:42.350Z,13.02
2023-05-19T07:22:08.807Z,12.99
2023-05-19T07:24:37.255Z,13.30
2023-05-19T07:27:03.774Z,13.18
2023-05-19T07:29:30.125Z,13.03
2023-05-19T07:31:57.971Z,13.17
2023-05-19T07:34:24.809Z,13.38
2023-05-19T07:36:52.066Z,13.51
2023-05-19T07:39:18.546Z,13.28
2023-05-19T07:41:45.140Z,13.22
2023-05-19T07:44:11.548Z,13.13
2023-05-19T07:46:38.113Z,13.26
2023-05-19T07:49:04.713Z,13.31
2023-05-19T07:51:31.776Z,13.29
2023-05-19T07:53:58.292Z,13.24
2023-05-19T07:56:25.020Z,13.35
2023-05-19T07:58:51.782Z,13.46
2023-05-19T08:01:18.173Z,13.49
2023-05-19T08:03:44.695Z,13.50
2023-05-19T08:06:11.230Z,13.48
2023-05-19T08:08:37.686Z,13.43
2023-05-19T08:11:04.576Z,13.41
2023-05-19T08:13:31.434Z,13.39
2023-05-19T08:15:59.923Z,13.33
2023-05-19T08:18:26.779Z,13.37
2023-05-19T08:20:53.203Z,13.38
2023-05-19T08:23:19.682Z,13.47
2023-05-19T08:25:46.116Z,13.45
2023-05-19T08:28:12.495Z,13.41
2023-05-19T08:30:38.972Z,13.50
2023-05-19T08:33:05.525Z,13.47
2023-05-19T08:35:32.000Z,13.43
2023-05-19T08:37:58.372Z,13.41
2023-05-19T08:40:24.869Z,13.40
2023-05-19T08:42:51.335Z,13.33
2023-05-19T08:45:17.715Z,13.25
2023-05-19T08:47:45.825Z,13.33
2023-05-19T08:50:12.232Z,13.42
2023-05-19T08:52:47.877Z,13.41
2023-05-19T08:55:24.081Z,13.38
2023-05-19T08:57:50.855Z,13.46
2023-05-19T09:00:17.296Z,13.57
2023-05-19T09:02:50.795Z,13.49
2023-05-19T09:05:27.584Z,13.52
2023-05-19T09:07:54.082Z,13.54
2023-05-19T09:10:20.514Z,13.56
2023-05-19T09:12:47.704Z,13.60
2023-05-19T09:15:17.470Z,13.66
2023-05-19T09:17:44.807Z,13.56
2023-05-19T09:20:11.542Z,13.55
2023-05-19T09:22:41.771Z,13.65
2023-05-19T09:25:17.589Z,13.67
2023-05-19T09:27:43.989Z,13.61
2023-05-19T09:30:10.532Z,13.69
2023-05-19T09:32:37.049Z,13.69
2023-05-19T09:35:04.120Z,13.75
2023-05-19T09:37:31.012Z,13.74
2023-05-19T09:39:57.769Z,13.72
2023-05-19T09:42:25.939Z,13.71
2023-05-19T09:45:01.871Z,13.61
2023-05-19T09:47:29.094Z,13.60
2023-05-19T09:49:56.887Z,13.57
2023-05-19T09:52:23.272Z,13.64
2023-05-19T09:54:51.766Z,13.57
2023-05-19T09:57:18.468Z,13.59
2023-05-19T09:59:44.846Z,13.60
2023-05-19T10:02:15.911Z,13.63
2023-05-19T10:04:42.368Z,13.62
2023-05-19T10:07:08.772Z,13.56
2023-05-19T10:09:35.191Z,13.62
2023-05-19T10:12:02.071Z,13.63
2023-05-19T10:14:28.835Z,13.56
2023-05-19T10:16:56.593Z,13.43
2023-05-19T10:19:23.725Z,13.39
2023-05-19T10:21:50.178Z,13.42
2023-05-19T10:24:16.823Z,13.45
2023-05-19T10:26:44.336Z,13.36
2023-05-19T10:29:12.949Z,13.19
2023-05-19T10:31:40.256Z,13.27
2023-05-19T10:34:24.754Z,13.20
2023-05-19T10:36:58.194Z,13.23
2023-05-19T10:39:32.787Z,13.15
2023-05-19T10:42:14.098Z,12.93
2023-05-19T10:44:53.801Z,12.95
2023-05-19T10:47:24.163Z,12.82
2023-05-19T10:49:54.273Z,12.79
2023-05-19T10:52:25.830Z,12.75
2023-05-19T10:54:54.362Z,12.65
2023-05-19T10:57:27.220Z,12.75
2023-05-19T10:59:53.621Z,12.74
2023-05-19T11:02:47.456Z,12.76
2023-05-19T11:05:15.025Z,12.69
2023-05-19T11:07:43.472Z,12.62
2023-05-19T11:10:10.126Z,12.50
2023-05-19T11:12:44.290Z,12.55
2023-05-19T11:15:14.311Z,12.55
2023-05-19T11:17:42.357Z,12.64
2023-05-19T11:20:11.120Z,12.69
2023-05-19T11:22:38.833Z,12.73
2023-05-19T11:25:05.256Z,12.77
2023-05-19T11:27:32.613Z,12.73
2023-05-19T11:30:00.036Z,12.70
2023-05-19T11:32:27.096Z,12.73
2023-05-19T11:34:53.838Z,12.80
2023-05-19T11:37:20.232Z,12.84
2023-05-19T11:39:47.428Z,12.64
2023-05-19T11:42:13.993Z,12.65
2023-05-19T11:44:46.179Z,12.79
2023-05-19T11:47:16.279Z,12.85
2023-05-19T11:49:47.860Z,12.95
2023-05-19T11:52:14.356Z,12.89
2023-05-19T11:54:42.181Z,12.78
2023-05-19T11:57:14.091Z,12.84
2023-05-19T11:59:48.202Z,12.93
2023-05-19T12:02:19.025Z,13.01
2023-05-19T12:04:45.815Z,13.01
2023-05-19T12:07:13.027Z,12.94
2023-05-19T12:09:39.748Z,13.08
2023-05-19T12:12:06.254Z,13.09
2023-05-19T12:14:32.696Z,13.19
2023-05-19T12:16:59.465Z,13.14
2023-05-19T12:19:26.229Z,13.16
2023-05-19T12:21:52.966Z,13.18
2023-05-19T12:24:19.903Z,13.28
2023-05-19T12:26:47.113Z,13.44
2023-05-19T12:29:13.794Z,13.44
2023-05-19T12:31:40.441Z,13.33
2023-05-19T12:34:06.888Z,13.39
2023-05-19T12:36:33.317Z,13.51
2023-05-19T12:38:59.992Z,13.50
2023-05-19T12:41:27.322Z,13.55
2023-05-19T12:43:56.497Z,13.50
2023-05-19T12:46:23.521Z,13.51
2023-05-19T12:48:50.211Z,13.45
2023-05-19T12:51:17.827Z,13.39
2023-05-19T12:53:44.681Z,13.39
2023-05-19T12:56:14.979Z,13.35
2023-05-19T12:58:41.872Z,13.48
2023-05-19T13:01:15.153Z,13.54
2023-05-19T13:03:42.540Z,13.54
2023-05-19T13:06:12.272Z,13.61
2023-05-19T13:08:40.053Z,13.66
2023-05-19T13:11:06.484Z,13.68
2023-05-19T13:13:32.910Z,13.54
2023-05-19T13:15:59.356Z,13.50
2023-05-19T13:18:27.498Z,13.53
2023-05-19T13:20:54.671Z,13.45
2023-05-19T13:23:21.087Z,13.37
2023-05-19T13:25:59.402Z,13.43
2023-05-19T13:28:26.459Z,13.34
2023-05-19T13:30:53.418Z,13.29
2023-05-19T13:33:20.020Z,13.28
2023-05-19T13:35:46.528Z,13.23
2023-05-19T13:38:14.617Z,13.17
2023-05-19T13:40:46.551Z,13.10
2023-05-19T13:43:13.159Z,13.08
2023-05-19T13:45:41.102Z,12.97
2023-05-19T13:48:07.903Z,12.96
2023-05-19T13:50:34.491Z,13.02
2023-05-19T13:53:00.939Z,13.00
2023-05-19T13:55:27.475Z,12.98
2023-05-19T13:57:53.926Z,12.94
2023-05-19T14:00:21.328Z,12.93
2023-05-19T14:02:47.845Z,13.08
2023-05-19T14:05:14.371Z,13.03
2023-05-19T14:07:41.293Z,13.03
2023-05-19T14:10:07.988Z,12.97
2023-05-19T14:12:45.131Z,12.91
2023-05-19T14:15:21.891Z,12.84
2023-05-19T14:17:49.097Z,12.84
2023-05-19T14:20:15.768Z,12.89
2023-05-19T14:22:42.192Z,12.71
2023-05-19T14:25:09.985Z,12.67
2023-05-19T14:27:36.484Z,12.61
2023-05-19T14:30:03.309Z,12.54
2023-05-19T14:32:30.635Z,12.41
2023-05-19T14:34:57.257Z,12.24
2023-05-19T14:37:24.180Z,12.24
2023-05-19T14:39:50.932Z,12.22
2023-05-19T14:42:38.934Z,12.17
2023-05-19T14:45:07.500Z,12.02
2023-05-19T14:47:35.116Z,11.97
2023-05-19T14:50:01.519Z,11.99
2023-05-19T14:52:27.997Z,11.94
2023-05-19T14:54:54.368Z,11.89
2023-05-19T14:57:20.770Z,11.91
2023-05-19T14:59:47.239Z,11.80
2023-05-19T15:02:14.933Z,11.74
2023-05-19T15:04:41.310Z,11.68
2023-05-19T15:07:10.802Z,11.65
2023-05-19T15:09:37.674Z,11.62
2023-05-19T15:12:04.154Z,11.61
2023-05-19T15:14:31.289Z,11.59
2023-05-19T15:16:58.883Z,11.52
2023-05-19T15:19:26.082Z,11.54
2023-05-19T15:21:52.860Z,11.52
2023-05-19T15:24:19.324Z,11.52
2023-05-19T15:26:47.051Z,11.60
2023-05-19T15:29:15.530Z,11.62
2023-05-19T15:31:42.144Z,11.63
2023-05-19T15:34:08.644Z,11.66
2023-05-19T15:36:35.142Z,11.59
2023-05-19T15:39:01.575Z,11.70
2023-05-19T15:41:28.010Z,11.72
2023-05-19T15:43:54.457Z,11.72
2023-05-19T15:46:20.917Z,11.75
2023-05-19T15:48:47.483Z,11.77
2023-05-19T15:51:13.985Z,11.75
2023-05-19T15:53:41.034Z,11.69
2023-05-19T15:56:07.525Z,11.65
2023-05-19T15:58:33.944Z,11.61
2023-05-19T16:01:01.800Z,11.59
2023-05-19T16:03:29.855Z,11.60
2023-05-19T16:05:56.749Z,11.55
2023-05-19T16:08:23.209Z,11.53
2023-05-19T16:10:49.608Z,11.55
2023-05-19T16:13:16.268Z,11.54
2023-05-19T16:15:44.249Z,11.52
2023-05-19T16:18:11.584Z,11.47
2023-05-19T16:20:38.288Z,11.47
2023-05-19T16:23:04.767Z,11.46
2023-05-19T16:25:31.216Z,11.48
2023-05-19T16:27:57.751Z,11.46
2023-05-19T16:30:26.387Z,11.45
2023-05-19T16:32:58.160Z,11.44
2023-05-19T16:35:24.853Z,11.48
2023-05-19T16:37:51.309Z,11.44
2023-05-19T16:40:17.743Z,11.43
2023-05-19T16:42:44.152Z,11.38
2023-05-19T16:45:10.623Z,11.35
2023-05-19T16:47:37.219Z,11.34
2023-05-19T16:50:03.914Z,11.35
2023-05-19T16:52:30.474Z,11.39
2023-05-19T16:54:58.414Z,11.35
2023-05-19T16:57:24.858Z,11.40
2023-05-19T16:59:51.290Z,11.40
2023-05-19T17:02:34.121Z,11.32
2023-05-19T17:05:00.701Z,11.33
2023-05-19T17:07:29.151Z,11.34
2023-05-19T17:10:04.973Z,11.32
2023-05-19T17:12:40.618Z,11.26
2023-05-19T17:15:10.944Z,11.23
2023-05-19T17:17:37.333Z,11.22
2023-05-19T17:20:09.271Z,11.20
2023-05-19T17:22:37.380Z,11.20
2023-05-19T17:25:03.994Z,11.22
2023-05-19T17:27:37.992Z,11.20
2023-05-19T17:30:13.359Z,11.19
2023-05-19T17:35:24.955Z,11.11
2023-05-19T17:37:52.709Z,11.12
2023-05-19T17:40:19.150Z,11.13
2023-05-19T17:42:45.600Z,11.09
2023-05-19T17:45:14.743Z,11.06
2023-05-19T17:47:41.301Z,11.05
2023-05-19T17:50:07.938Z,11.05
2023-05-19T17:52:34.464Z,10.94
2023-05-19T17:55:02.491Z,10.93
2023-05-19T17:57:29.157Z,10.91
2023-05-19T17:59:55.846Z,10.85
2023-05-19T18:02:26.478Z,10.86
2023-05-19T18:04:53.574Z,10.85
2023-05-19T18:07:19.999Z,10.83
2023-05-19T18:09:46.763Z,10.84
2023-05-19T18:12:14.296Z,10.84
2023-05-19T18:14:42.055Z,10.80
2023-05-19T18:17:10.325Z,10.80
2023-05-19T18:19:36.965Z,10.79
2023-05-19T18:22:03.541Z,10.79
2023-05-19T18:24:30.850Z,10.73
2023-05-19T18:26:57.406Z,10.74
2023-05-19T18:29:26.876Z,10.73
2023-05-19T18:31:57.017Z,10.73
2023-05-19T18:34:23.505Z,10.73
2023-05-19T18:36:49.922Z,10.74
2023-05-19T18:39:16.537Z,10.71
2023-05-19T18:41:42.942Z,10.71
2023-05-19T18:44:09.392Z,10.71
2023-05-19T18:51:14.289Z,10.66
2023-05-19T18:53:40.785Z,10.71
2023-05-19T18:56:07.423Z,10.76
2023-05-19T18:59:07.979Z,10.74
2023-05-19T19:01:34.590Z,10.71
2023-05-19T19:04:02.588Z,10.72
2023-05-19T19:06:29.112Z,10.68
2023-05-19T19:08:55.512Z,10.69
2023-05-19T19:11:22.472Z,10.70
2023-05-19T19:13:51.561Z,10.66
2023-05-19T19:16:18.156Z,10.65
2023-05-19T19:18:45.924Z,10.64
2023-05-19T19:21:12.404Z,10.59
2023-05-19T19:23:38.762Z,10.61
2023-05-19T19:26:06.953Z,10.63
2023-05-19T19:28:35.280Z,10.61
2023-05-19T19:31:01.662Z,10.60
2023-05-19T19:33:28.060Z,10.60
2023-05-19T19:35:54.555Z,10.55
2023-05-19T19:38:21.133Z,10.59
2023-05-19T19:40:47.531Z,10.54
2023-05-19T19:43:14.030Z,10.47
2023-05-19T19:45:41.592Z,10.49
2023-05-19T19:48:08.174Z,10.52
2023-05-19T19:50:34.819Z,10.51
2023-05-19T19:53:04.074Z,10.52
2023-05-19T19:55:33.515Z,10.45
2023-05-19T19:57:59.902Z,10.41
2023-05-19T20:00:26.368Z,10.80
2023-05-19T20:03:04.314Z,10.83
2023-05-19T20:05:31.898Z,10.71
2023-05-19T20:07:58.452Z,10.67
2023-05-19T20:10:24.987Z,10.65
2023-05-19T20:12:51.893Z,10.64
2023-05-19T20:15:18.486Z,10.61
2023-05-19T20:17:44.899Z,10.61
2023-05-19T20:20:12.320Z,10.54
2023-05-19T20:22:39.043Z,10.57
2023-05-19T20:25:06.083Z,10.60
2023-05-19T20:27:32.592Z,10.60
2023-05-19T20:30:01.010Z,10.57
2023-05-19T20:32:28.518Z,10.55
2023-05-19T20:34:55.600Z,10.58
2023-05-19T20:37:22.336Z,10.61
2023-05-19T20:39:48.772Z,10.57
2023-05-19T20:42:15.171Z,10.61
2023-05-19T20:44:41.886Z,10.57
2023-05-19T20:47:10.416Z,10.59
2023-05-19T20:49:36.865Z,10.58
2023-05-19T20:52:03.349Z,10.53
2023-05-19T20:54:29.784Z,10.49
2023-05-19T20:56:56.638Z,10.48
2023-05-19T20:59:23.044Z,10.50
2023-05-19T21:01:49.479Z,10.47
2023-05-19T21:04:16.594Z,10.46
2023-05-19T21:06:43.053Z,10.42
2023-05-19T21:09:10.705Z,10.45
2023-05-19T21:11:37.249Z,10.48
2023-05-19T21:14:08.018Z,10.41
2023-05-19T21:16:34.554Z,10.45
2023-05-19T21:19:02.169Z,10.42
2023-05-19T21:21:28.636Z,10.42
2023-05-19T21:23:55.012Z,10.42
2023-05-19T21:26:22.110Z,10.39
2023-05-19T21:28:48.658Z,10.41
2023-05-19T21:31:15.250Z,10.39
2023-05-19T21:33:41.757Z,10.38
2023-05-19T21:36:08.242Z,10.35
2023-05-19T21:38:34.727Z,10.36
2023-05-19T21:41:01.170Z,10.37
2023-05-19T21:43:27.624Z,10.34
2023-05-19T21:45:53.993Z,10.33
2023-05-19T21:48:21.448Z,10.33
2023-05-19T21:50:57.762Z,10.32
2023-05-19T21:53:24.404Z,10.29
2023-05-19T21:55:50.962Z,10.30
2023-05-19T21:58:18.192Z,10.27
2023-05-19T22:00:49.030Z,10.25
2023-05-19T22:03:15.710Z,10.32
2023-05-19T22:05:42.150Z,10.33
2023-05-19T22:08:08.650Z,10.33
2023-05-19T22:10:37.115Z,10.30
2023-05-19T22:13:03.645Z,10.25
2023-05-19T22:15:30.051Z,10.28
2023-05-19T22:17:56.680Z,10.27
2023-05-19T22:20:23.164Z,10.29
2023-05-19T22:22:49.687Z,10.26
2023-05-19T22:25:16.479Z,10.25
2023-05-19T22:27:42.896Z,10.21
2023-05-19T22:30:09.390Z,10.22
2023-05-19T22:32:36.132Z,10.24
2023-05-19T22:35:02.608Z,10.22
2023-05-19T22:37:29.128Z,10.17
2023-05-19T22:39:55.487Z,10.19
2023-05-19T22:42:21.900Z,10.19
2023-05-19T22:44:48.353Z,10.15
2023-05-19T22:47:15.013Z,10.17
2023-05-19T22:49:41.580Z,10.19
2023-05-19T22:52:08.542Z,10.20
2023-05-19T22:54:34.920Z,10.18
2023-05-19T22:57:01.593Z,10.20
2023-05-19T22:59:28.062Z,10.19
2023-05-19T23:01:54.454Z,10.16
2023-05-19T23:04:21.007Z,10.19
2023-05-19T23:06:48.651Z,10.14
2023-05-19T23:09:15.951Z,10.14
2023-05-19T23:11:42.318Z,10.10
2023-05-19T23:14:09.854Z,10.09
2023-05-19T23:16:36.235Z,10.05
2023-05-19T23:19:02.692Z,10.06
2023-05-19T23:21:32.495Z,10.03
2023-05-19T23:23:59.448Z,10.02
2023-05-19T23:26:27.283Z,9.99
2023-05-19T23:28:53.729Z,9.98
2023-05-19T23:31:20.164Z,9.96
2023-05-19T23:33:46.649Z,10.01
2023-05-19T23:36:13.092Z,10.02
2023-05-19T23:38:39.493Z,10.02
2023-05-19T23:41:06.008Z,10.00
2023-05-19T23:43:32.560Z,10.01
2023-05-19T23:45:59.297Z,10.00
2023-05-19T23:48:26.589Z,9.98
2023-05-19T23:50:53.157Z,9.94
2023-05-19T23:53:19.851Z,9.95
2023-05-19T23:55:46.368Z,9.93
2023-05-19T23:58:12.847Z,9.97
